Terminal Aerodrome Forecast
Issued by NWS

Current Version | Previous Version | Graphics & Text | Print | Product List | Glossary On
Versions: 1 2 3 4 5 6 7 8 9 10 11 12 13 14 15 16 17 18 19 20 21 22 23 24 25
000
FTUS41 KPBZ 271728
TAFMGW
TAF
KMGW 271728Z 2718/2818 22012G18KT P6SM BKN200
     FM272000 18009G18KT P6SM -SHRA VCTS BKN050CB
     FM280100 21008KT P6SM BKN050
     FM281300 20004KT P6SM SCT035=

USA.gov is the U.S. government's official web portal to all federal, state and local government web resources and services.